イルクーツク の空港の天気 - METARとTAF

イルクーツク国際空港 ( UIII / IKT ) - ロシア イルクーツク
飛行場実況気象(Metar)
観測時間08/11 14:30 IRKT (08/11 06:30 UTC)
風向・風速南 4m/s
視程10km以上
天気現象
なし
気温26℃
湿度48%
気圧1006hPa
METARUIII 110630Z 18004MPS 150V230 CAVOK 26/14 Q1006 R12/60D NOSIG RMK QFE712/0950
過去の天気等 Google飛行場航空写真 Wunderground天気予報

過去48時間のMETAR

飛行場予報(TAF)
発表時間: 8/11 13:00 IRKT (8/11 05:00 UTC)
予報対象時間: 11日14時 IRKT ~ 12日14時 IRKT
風向・風速南南東 5m/s
視程10km以上
全天の4割程度の積乱雲 雲底高度 1520m
TAF UIII 110500Z 1106/1206 16005MPS 9999 SCT050CB